Time;durP1;ratioP1;P1;durP2;ratioP2;P2;SDS_P1;SDS_P2;PMS_P1;PMS_P2;Temp;Humidity;BMP_temperature;BMP_pressure;BME280_temperature;BME280_humidity;BME280_pressure;Samples;Min_cycle;Max_cycle;Signal;HPM_P1;HPM_P2
2021/01/16 00:02:00;;;;;;;7.43;4.73;;;;;;;-6.42;82.28;100565.50;2283600;67;20609;-78
2021/01/16 00:05:02;;;;;;;9.53;5.40;;;;;;;-6.46;82.34;100566.00;2284263;70;20938;-79
2021/01/16 00:08:06;;;;;;;11.06;5.91;;;;;;;-6.53;82.33;100564.59;2283447;70;20203;-78
2021/01/16 00:11:08;;;;;;;9.63;5.49;;;;;;;-6.50;82.64;100572.44;2283484;70;21153;-78
2021/01/16 00:14:10;;;;;;;10.42;5.20;;;;;;;-6.45;82.75;100567.78;2282515;70;20202;-78
2021/01/16 00:17:12;;;;;;;12.11;5.84;;;;;;;-6.47;82.52;100561.69;2283118;67;20682;-78
2021/01/16 00:20:13;;;;;;;9.22;5.89;;;;;;;-6.48;82.63;100559.91;2284575;69;20159;-78
2021/01/16 00:23:15;;;;;;;9.74;5.13;;;;;;;-6.51;82.54;100569.78;2283240;70;20155;-78
2021/01/16 00:26:17;;;;;;;10.27;5.76;;;;;;;-6.55;82.56;100568.66;2284676;70;20174;-78
2021/01/16 00:29:19;;;;;;;11.17;5.40;;;;;;;-6.59;82.46;100555.66;2283954;70;20522;-78
2021/01/16 00:35:40;;;;;;;8.16;5.23;;;;;;;-6.60;82.45;100562.34;2282644;69;20397;-69
2021/01/16 00:38:43;;;;;;;7.06;4.61;;;;;;;-6.66;82.22;100555.91;2285630;70;20197;-70
2021/01/16 00:41:44;;;;;;;7.49;5.08;;;;;;;-6.75;82.11;100559.44;2284726;70;20228;-68
2021/01/16 00:44:46;;;;;;;7.72;4.71;;;;;;;-6.78;82.25;100566.78;2284130;70;20151;-70
2021/01/16 00:47:48;;;;;;;7.83;4.79;;;;;;;-6.77;82.31;100562.59;2281739;67;20809;-70
2021/01/16 00:50:52;;;;;;;9.41;5.36;;;;;;;-6.76;82.37;100561.84;2283135;70;20866;-70
2021/01/16 00:53:53;;;;;;;8.91;5.11;;;;;;;-6.77;82.26;100571.06;2282766;70;20854;-69
2021/01/16 00:56:55;;;;;;;8.19;4.91;;;;;;;-6.76;82.17;100572.84;2283752;70;20163;-69
2021/01/16 00:59:57;;;;;;;9.89;6.13;;;;;;;-6.85;81.75;100573.69;2284055;70;20429;-70
2021/01/16 01:02:59;;;;;;;11.84;6.09;;;;;;;-6.92;81.67;100574.84;2282043;67;22154;-69
2021/01/16 01:06:00;;;;;;;8.14;5.43;;;;;;;-6.98;81.69;100574.34;2283797;70;20174;-69
2021/01/16 01:09:03;;;;;;;8.66;5.51;;;;;;;-7.01;81.94;100581.63;2283354;69;20517;-69
2021/01/16 01:12:05;;;;;;;8.97;5.34;;;;;;;-6.99;82.21;100576.75;2284177;69;20206;-69
2021/01/16 01:15:08;;;;;;;6.39;4.52;;;;;;;-7.09;82.05;100572.56;2282774;70;20177;-69
2021/01/16 01:18:10;;;;;;;7.74;4.33;;;;;;;-7.19;82.02;100568.34;2283015;67;30440;-69
2021/01/16 01:21:12;;;;;;;7.49;4.57;;;;;;;-7.22;82.10;100574.78;2284198;70;20153;-69
2021/01/16 01:24:13;;;;;;;7.46;4.34;;;;;;;-7.23;82.13;100578.06;2283545;70;20278;-69
2021/01/16 01:27:15;;;;;;;6.32;4.38;;;;;;;-7.26;82.02;100576.19;2284339;70;20711;-69
2021/01/16 01:30:17;;;;;;;6.87;4.94;;;;;;;-7.28;82.05;100570.13;2282206;66;20730;-69
2021/01/16 01:33:19;;;;;;;7.27;4.81;;;;;;;-7.30;81.92;100576.69;2283391;70;20177;-69
2021/01/16 01:36:21;;;;;;;6.79;4.80;;;;;;;-7.29;81.98;100568.34;2287326;70;20155;-69
2021/01/16 01:39:22;;;;;;;6.96;5.23;;;;;;;-7.31;81.91;100569.88;2284420;70;20175;-69
2021/01/16 01:42:24;;;;;;;8.60;4.57;;;;;;;-7.34;81.75;100564.56;2284295;70;20173;-69
2021/01/16 01:45:26;;;;;;;7.16;4.67;;;;;;;-7.36;81.68;100576.13;2282613;69;23205;-70
2021/01/16 01:48:28;;;;;;;7.02;4.90;;;;;;;-7.39;81.68;100570.84;2284502;70;20952;-69
2021/01/16 01:51:31;;;;;;;7.79;4.76;;;;;;;-7.40;81.87;100572.47;2283857;70;20147;-69
2021/01/16 01:54:34;;;;;;;8.13;4.78;;;;;;;-7.40;82.07;100574.13;2283393;70;20584;-69
2021/01/16 01:57:43;;;;;;;7.76;4.84;;;;;;;-7.44;82.16;100572.97;2283225;70;20871;-69
2021/01/16 02:00:48;;;;;;;7.44;4.67;;;;;;;-7.48;82.07;100580.16;2282687;67;20204;-69
2021/01/16 02:03:50;;;;;;;7.11;4.49;;;;;;;-7.57;81.74;100576.84;2283618;70;20758;-69
2021/01/16 02:06:52;;;;;;;8.09;5.08;;;;;;;-7.65;81.96;100572.03;2283876;70;20716;-69
2021/01/16 02:09:55;;;;;;;9.68;5.28;;;;;;;-7.64;81.91;100568.75;2284139;70;20163;-69
2021/01/16 02:12:57;;;;;;;7.27;4.73;;;;;;;-7.64;81.96;100560.31;2283638;70;20151;-69
2021/01/16 02:16:12;;;;;;;6.97;4.92;;;;;;;-7.60;82.13;100554.78;2283204;67;27829;-69
2021/01/16 02:19:32;;;;;;;7.99;4.59;;;;;;;-7.64;81.87;100556.16;2284314;70;20159;-69
2021/01/16 02:22:51;;;;;;;6.48;4.40;;;;;;;-7.69;81.71;100554.88;2283080;70;20139;-69
2021/01/16 02:26:07;;;;;;;;;;;;;;;-7.75;81.75;100554.34;2284208;70;20175;-69
2021/01/16 02:29:10;;;;;;;7.26;4.67;;;;;;;-7.77;81.92;100558.38;2284483;70;20058;-69
2021/01/16 02:32:15;;;;;;;8.22;5.04;;;;;;;-7.78;82.16;100561.66;2281845;67;20135;-69
2021/01/16 02:35:19;;;;;;;8.41;5.68;;;;;;;-7.77;82.10;100565.03;2283732;70;20205;-69
2021/01/16 02:38:34;;;;;;;8.26;4.54;;;;;;;-7.77;82.14;100570.97;2288072;70;20150;-69
2021/01/16 02:41:56;;;;;;;8.11;5.28;;;;;;;-7.72;82.28;100566.31;2283924;70;20188;-69
2021/01/16 02:45:05;;;;;;;10.43;5.62;;;;;;;-7.74;82.08;100567.81;2283611;70;20151;-69
2021/01/16 02:48:15;;;;;;;8.80;5.00;;;;;;;-7.77;82.05;100572.63;2283853;67;20154;-69
2021/01/16 02:51:26;;;;;;;9.73;5.94;;;;;;;-7.77;82.03;100565.03;2283766;70;20305;-69
2021/01/16 02:54:28;;;;;;;7.11;5.08;;;;;;;-7.76;82.31;100567.69;2283962;70;20228;-67
2021/01/16 02:57:29;;;;;;;9.57;5.37;;;;;;;-7.79;82.11;100571.59;2282662;70;20222;-69
2021/01/16 03:00:31;;;;;;;12.40;6.11;;;;;;;-7.78;82.08;100571.72;2282415;68;33713;-69
2021/01/16 03:03:36;;;;;;;8.31;5.06;;;;;;;-7.82;81.82;100569.69;2284654;70;20196;-69
2021/01/16 03:06:49;;;;;;;8.80;4.89;;;;;;;-7.88;81.69;100568.28;2285843;70;20191;-69
2021/01/16 03:09:53;;;;;;;9.69;5.27;;;;;;;-7.92;81.95;100562.97;2285288;70;20147;-69
2021/01/16 03:12:54;;;;;;;9.73;5.16;;;;;;;-7.93;81.92;100570.41;2284901;70;20169;-69
2021/01/16 03:15:58;;;;;;;8.67;4.94;;;;;;;-7.94;82.05;100553.50;2284569;67;20821;-70
2021/01/16 03:19:02;;;;;;;10.96;5.72;;;;;;;-7.89;82.18;100564.00;2289886;70;20174;-69
2021/01/16 03:22:16;;;;;;;12.20;5.53;;;;;;;-7.86;82.08;100560.13;2284473;70;20175;-70
2021/01/16 03:25:23;;;;;;;8.98;4.87;;;;;;;-7.91;81.70;100564.72;2285566;70;20184;-69
2021/01/16 03:28:26;;;;;;;9.58;5.22;;;;;;;-7.98;81.69;100559.94;2286000;70;20268;-69
2021/01/16 03:31:28;;;;;;;8.67;5.06;;;;;;;-8.00;81.62;100560.56;2283756;66;22349;-69
2021/01/16 03:34:29;;;;;;;6.96;4.97;;;;;;;-8.00;81.83;100560.56;2285738;70;20906;-69
2021/01/16 03:37:31;;;;;;;9.29;5.20;;;;;;;-8.00;82.01;100558.03;2284408;70;20167;-69
2021/01/16 03:40:33;;;;;;;6.78;4.54;;;;;;;-7.97;82.18;100549.09;2284933;70;20150;-70
2021/01/16 03:43:35;;;;;;;7.53;4.60;;;;;;;-7.90;82.33;100553.00;2285161;70;20823;-70
2021/01/16 03:46:37;;;;;;;7.69;4.90;;;;;;;-7.94;81.92;100549.34;2284964;67;22151;-70
2021/01/16 03:49:39;;;;;;;9.08;4.73;;;;;;;-8.00;81.87;100547.94;2285438;70;20159;-69
2021/01/16 03:52:41;;;;;;;8.87;5.70;;;;;;;-8.01;82.00;100542.03;2286027;70;20163;-70
2021/01/16 03:55:43;;;;;;;8.62;5.10;;;;;;;-7.99;81.97;100545.56;2285763;70;20159;-70
2021/01/16 03:58:44;;;;;;;7.74;4.71;;;;;;;-8.01;81.71;100543.66;2285397;70;20192;-70
2021/01/16 04:01:48;;;;;;;8.98;4.49;;;;;;;-8.07;81.59;100548.19;2285087;67;21319;-69
2021/01/16 04:04:50;;;;;;;8.28;5.47;;;;;;;-8.14;81.52;100548.38;2284107;70;20362;-70
2021/01/16 04:07:52;;;;;;;7.59;4.76;;;;;;;-8.20;81.60;100551.25;2283346;70;20167;-69
2021/01/16 04:10:54;;;;;;;8.51;5.62;;;;;;;-8.20;81.83;100550.38;2283187;70;20182;-69
2021/01/16 04:13:56;;;;;;;9.27;5.80;;;;;;;-8.20;81.90;100555.41;2283501;70;20648;-70
2021/01/16 04:16:58;;;;;;;7.86;5.06;;;;;;;-8.17;82.11;100558.19;2284226;66;20187;-69
2021/01/16 04:20:00;;;;;;;6.23;4.86;;;;;;;-8.15;82.15;100561.72;2284769;70;20167;-69
2021/01/16 04:23:02;;;;;;;8.82;5.03;;;;;;;-8.08;82.54;100569.94;2283170;70;20171;-69
2021/01/16 04:26:04;;;;;;;9.04;4.94;;;;;;;-8.04;82.68;100568.59;2283760;70;20171;-69
2021/01/16 04:29:05;;;;;;;8.30;5.82;;;;;;;-8.00;82.63;100571.50;2283338;70;20163;-69
2021/01/16 04:32:07;;;;;;;8.09;5.13;;;;;;;-7.98;82.56;100570.00;2281865;67;22466;-69
2021/01/16 04:35:09;;;;;;;8.41;5.08;;;;;;;-7.97;82.62;100568.38;2283658;70;20286;-69
2021/01/16 04:38:12;;;;;;;9.61;5.63;;;;;;;-8.01;82.48;100564.69;2282893;70;20208;-69
2021/01/16 04:41:14;;;;;;;6.98;4.89;;;;;;;-7.99;82.51;100567.34;2284552;70;20183;-69
2021/01/16 04:44:20;;;;;;;9.37;4.90;;;;;;;-7.99;82.42;100568.25;2283868;70;20192;-69
2021/01/16 04:47:25;;;;;;;9.59;5.57;;;;;;;-7.99;82.39;100572.41;2283157;69;20478;-69
2021/01/16 04:50:29;;;;;;;8.29;5.43;;;;;;;-7.95;82.47;100576.94;2283806;70;20255;-69
2021/01/16 04:53:38;;;;;;;9.27;5.48;;;;;;;-7.95;82.38;100574.41;2284376;70;20197;-69
2021/01/16 04:56:41;;;;;;;9.79;5.51;;;;;;;-7.94;82.64;100561.06;2283620;70;20220;-69
2021/01/16 04:59:44;;;;;;;10.89;5.83;;;;;;;-7.88;82.69;100564.13;2283947;70;20224;-69
2021/01/16 05:02:47;;;;;;;9.48;5.52;;;;;;;-7.93;82.57;100556.16;2283523;67;21605;-69
2021/01/16 05:05:52;;;;;;;10.29;5.56;;;;;;;-7.86;82.56;100554.19;2283813;70;20177;-69
2021/01/16 05:08:56;;;;;;;10.27;5.53;;;;;;;-7.85;82.48;100540.84;2283954;70;20220;-69
2021/01/16 05:12:28;;;;;;;9.67;5.61;;;;;;;-7.81;82.41;100548.78;2283195;70;20544;-69
2021/01/16 05:15:32;;;;;;;9.20;5.37;;;;;;;-7.82;82.00;100547.03;2280910;67;20313;-69
2021/01/16 05:18:37;;;;;;;9.57;5.69;;;;;;;-7.82;81.98;100552.06;2284256;70;20590;-69
2021/01/16 05:21:39;;;;;;;10.70;5.66;;;;;;;-7.85;81.79;100549.28;2282842;70;20947;-70
2021/01/16 05:24:41;;;;;;;8.82;5.26;;;;;;;-7.88;81.77;100549.03;2283058;69;20190;-69
2021/01/16 05:27:55;;;;;;;10.22;5.64;;;;;;;-7.92;81.83;100547.84;2287395;69;20499;-69
2021/01/16 05:30:59;;;;;;;10.60;6.07;;;;;;;-7.84;82.41;100538.44;2283641;70;20528;-69
2021/01/16 05:34:02;;;;;;;9.60;5.11;;;;;;;-7.72;82.69;100544.53;2283067;70;20599;-69
2021/01/16 05:37:04;;;;;;;13.17;6.08;;;;;;;-7.77;82.31;100537.31;2283510;70;20158;-69
2021/01/16 05:40:08;;;;;;;7.99;5.57;;;;;;;-7.76;82.52;100534.03;2283546;70;20175;-69
2021/01/16 05:43:11;;;;;;;13.89;6.03;;;;;;;-7.71;82.73;100531.19;2284507;70;20163;-69
2021/01/16 05:46:15;;;;;;;8.90;5.54;;;;;;;-7.69;82.61;100536.34;2282644;69;22039;-69
2021/01/16 05:49:18;;;;;;;8.94;5.39;;;;;;;-7.70;82.53;100529.56;2284554;70;20173;-69
2021/01/16 05:52:20;;;;;;;8.50;5.19;;;;;;;-7.72;82.53;100521.84;2282796;70;20202;-69
2021/01/16 05:55:22;;;;;;;9.60;5.63;;;;;;;-7.69;82.59;100531.31;2283916;70;20220;-69
2021/01/16 05:58:29;;;;;;;9.68;5.50;;;;;;;-7.70;82.31;100532.06;2284508;70;20472;-69
2021/01/16 06:01:36;;;;;;;10.42;6.04;;;;;;;-7.70;82.46;100537.13;2282527;67;21026;-69
2021/01/16 06:04:46;;;;;;;11.63;6.12;;;;;;;-7.62;82.51;100538.63;2283508;70;20139;-69
2021/01/16 06:07:48;;;;;;;9.87;5.91;;;;;;;-7.64;82.33;100536.00;2283783;70;20308;-69
2021/01/16 06:10:56;;;;;;;9.92;5.94;;;;;;;-7.61;82.49;100532.84;2283558;70;20159;-69
2021/01/16 06:14:01;;;;;;;10.53;5.66;;;;;;;-7.57;82.52;100528.94;2282630;70;20139;-69
2021/01/16 06:17:05;;;;;;;9.97;6.07;;;;;;;-7.57;82.52;100529.81;2283753;67;20250;-69
2021/01/16 06:20:08;;;;;;;10.41;6.56;;;;;;;-7.51;82.90;100527.84;2285280;70;20169;-69
2021/01/16 06:23:14;;;;;;;10.94;6.39;;;;;;;-7.48;82.78;100524.69;2284043;70;20801;-69
2021/01/16 06:26:20;;;;;;;10.82;5.66;;;;;;;-7.47;82.67;100519.75;2283462;70;20165;-69
2021/01/16 06:29:33;;;;;;;10.96;6.51;;;;;;;-7.47;82.54;100517.25;2284742;70;20578;-69
2021/01/16 06:32:46;;;;;;;12.23;6.46;;;;;;;-7.49;82.35;100526.31;2282662;67;24402;-69
2021/01/16 06:36:08;;;;;;;10.37;6.04;;;;;;;-7.50;82.36;100513.59;2282552;70;20513;-69
2021/01/16 06:39:10;;;;;;;10.97;6.03;;;;;;;-7.44;82.49;100525.06;2282054;70;20236;-69
2021/01/16 06:42:22;;;;;;;11.34;6.47;;;;;;;-7.44;82.29;100520.03;2282083;70;20389;-69
2021/01/16 06:45:28;;;;;;;10.89;5.91;;;;;;;-7.45;82.13;100514.84;2280426;67;20139;-69
2021/01/16 06:48:37;;;;;;;12.49;6.00;;;;;;;-7.45;82.06;100514.84;2282727;70;20842;-69
2021/01/16 06:51:39;;;;;;;7.47;5.49;;;;;;;-7.47;81.90;100516.38;2281974;70;20212;-69
2021/01/16 06:54:41;;;;;;;12.07;5.94;;;;;;;-7.43;82.05;100511.69;2281823;70;20175;-69
2021/01/16 06:57:42;;;;;;;9.20;5.69;;;;;;;-7.40;82.01;100508.53;2281795;70;20201;-69
2021/01/16 07:00:55;;;;;;;7.83;5.12;;;;;;;-7.44;81.94;100512.44;2279736;67;37656;-70
2021/01/16 07:04:03;;;;;;;10.59;6.44;;;;;;;-7.33;82.21;100511.72;2281794;70;20197;-69
2021/01/16 07:07:05;;;;;;;11.38;5.31;;;;;;;-7.21;82.12;100516.88;2282716;70;20168;-69
2021/01/16 07:10:08;;;;;;;12.28;6.12;;;;;;;-7.26;81.53;100510.59;2282102;70;20220;-70
2021/01/16 07:13:11;;;;;;;10.54;5.70;;;;;;;-7.32;81.65;100516.00;2282069;70;20701;-71
2021/01/16 07:16:17;;;;;;;9.90;6.00;;;;;;;-7.31;81.98;100516.91;2280552;67;20424;-70
2021/01/16 07:19:23;;;;;;;7.87;5.08;;;;;;;-7.24;82.50;100514.13;2282720;70;20264;-70
2021/01/16 07:22:29;;;;;;;9.78;5.40;;;;;;;-7.11;82.47;100505.94;2281856;70;20172;-70
2021/01/16 07:25:32;;;;;;;9.91;6.34;;;;;;;-7.11;82.05;100509.34;2281541;70;20198;-71
2021/01/16 07:28:37;;;;;;;9.80;5.94;;;;;;;-7.09;82.14;100507.81;2281285;70;20593;-70
2021/01/16 07:31:42;;;;;;;10.63;6.27;;;;;;;-7.03;82.37;100505.78;2280617;67;29817;-71
2021/01/16 07:34:46;;;;;;;10.80;6.57;;;;;;;-7.03;82.09;100502.38;2281760;70;20150;-71
2021/01/16 07:37:49;;;;;;;12.50;6.00;;;;;;;-6.96;82.43;100512.25;2282357;70;20790;-71
2021/01/16 07:40:57;;;;;;;13.27;6.80;;;;;;;-6.93;82.03;100509.09;2283214;70;20805;-70
2021/01/16 07:44:05;;;;;;;13.56;7.27;;;;;;;-6.90;82.40;100510.22;2284590;70;20173;-70
2021/01/16 07:47:21;;;;;;;11.57;7.00;;;;;;;-6.79;82.45;100514.50;2282925;67;20520;-70
2021/01/16 07:50:28;;;;;;;10.69;6.79;;;;;;;-6.82;82.21;100511.75;2283735;70;20147;-71
2021/01/16 07:53:30;;;;;;;14.54;6.71;;;;;;;-6.75;82.44;100503.91;2283595;70;20661;-71
2021/01/16 07:57:04;;;;;;;12.88;7.26;;;;;;;-6.64;82.67;100512.34;2283248;70;20196;-69
2021/01/16 08:00:08;;;;;;;14.43;7.54;;;;;;;-6.59;82.48;100502.63;2283182;70;20931;-70
2021/01/16 08:03:26;;;;;;;12.77;7.30;;;;;;;-6.59;82.26;100505.16;2282076;67;20460;-70
2021/01/16 08:06:55;;;;;;;12.72;7.19;;;;;;;-6.51;82.59;100512.56;2284109;70;20173;-69
2021/01/16 08:10:00;;;;;;;13.20;7.17;;;;;;;-6.39;82.56;100517.72;2283601;70;20202;-69
2021/01/16 08:13:08;;;;;;;14.23;7.30;;;;;;;-6.36;82.45;100500.28;2283534;70;20159;-69
2021/01/16 08:16:12;;;;;;;13.39;7.56;;;;;;;-6.29;82.40;100505.06;2282226;67;23022;-69
2021/01/16 08:19:24;;;;;;;16.47;7.99;;;;;;;-6.23;82.44;100503.03;2282278;70;20232;-69
2021/01/16 08:22:36;;;;;;;15.66;8.78;;;;;;;-6.24;82.20;100496.22;2283938;70;20151;-69
2021/01/16 08:25:39;;;;;;;18.94;8.88;;;;;;;-6.15;82.56;100491.00;2283507;70;20200;-69
2021/01/16 08:28:43;;;;;;;15.86;8.48;;;;;;;-6.07;82.70;100482.38;2283281;70;20681;-71
2021/01/16 08:31:45;;;;;;;16.21;8.42;;;;;;;-5.92;82.78;100485.22;2284004;67;20163;-69
2021/01/16 08:35:05;;;;;;;17.62;8.82;;;;;;;-5.75;82.76;100487.34;2282316;70;20147;-69
2021/01/16 08:38:16;;;;;;;16.33;8.66;;;;;;;-5.67;82.62;100485.44;2283754;70;20480;-69
2021/01/16 08:41:22;;;;;;;18.31;8.96;;;;;;;-5.63;82.10;100483.25;2284160;70;20264;-69
2021/01/16 08:44:49;;;;;;;14.88;8.33;;;;;;;-5.64;81.81;100486.56;2282491;70;20955;-69
2021/01/16 08:47:56;;;;;;;19.23;10.37;;;;;;;-5.64;81.42;100480.59;2282714;66;28227;-69
2021/01/16 08:50:57;;;;;;;15.80;9.12;;;;;;;-5.67;81.62;100477.84;2283017;69;20173;-70
2021/01/16 08:54:09;;;;;;;15.52;9.31;;;;;;;-5.60;81.96;100478.41;2282564;70;20272;-70
2021/01/16 08:57:10;;;;;;;18.49;9.73;;;;;;;-5.41;82.39;100469.69;2282864;70;20958;-70
2021/01/16 09:00:25;;;;;;;15.61;9.17;;;;;;;-5.36;81.94;100470.94;2280509;67;21801;-71
2021/01/16 09:03:27;;;;;;;20.16;9.96;;;;;;;-5.31;81.92;100477.22;2281697;70;20177;-70
2021/01/16 09:06:29;;;;;;;17.38;9.47;;;;;;;-5.26;81.82;100475.91;2281972;70;20248;-70
2021/01/16 09:09:30;;;;;;;16.23;9.26;;;;;;;-5.23;81.80;100473.63;2281159;70;20170;-70
2021/01/16 09:12:34;;;;;;;17.61;10.04;;;;;;;-5.25;81.61;100467.56;2281655;70;20179;-69
2021/01/16 09:15:39;;;;;;;17.08;9.60;;;;;;;-5.17;81.73;100464.84;2280570;68;30576;-69
2021/01/16 09:18:57;;;;;;;17.49;9.79;;;;;;;-5.13;81.45;100465.97;2282077;70;20170;-69
2021/01/16 09:22:34;;;;;;;16.18;9.47;;;;;;;-5.08;81.67;100469.69;2281644;70;20179;-69
2021/01/16 09:25:40;;;;;;;18.74;10.69;;;;;;;-4.96;81.52;100469.75;2273804;70;20226;-69
2021/01/16 09:29:00;;;;;;;17.78;10.89;;;;;;;-4.86;81.40;100464.56;2282205;70;20214;-69
2021/01/16 09:32:03;;;;;;;18.41;10.46;;;;;;;-4.76;81.49;100453.47;2281199;67;20175;-69
2021/01/16 09:35:06;;;;;;;19.09;10.71;;;;;;;-4.62;81.49;100457.91;2280547;70;20723;-68
2021/01/16 09:38:22;;;;;;;18.10;10.53;;;;;;;-4.60;80.98;100453.81;2281714;70;20199;-69
2021/01/16 09:41:34;;;;;;;18.28;11.10;;;;;;;-4.58;80.64;100450.63;2282186;70;20176;-69
2021/01/16 09:44:39;;;;;;;18.39;10.52;;;;;;;-4.52;80.48;100460.31;2282351;70;20181;-69
2021/01/16 09:47:46;;;;;;;19.18;11.18;;;;;;;-4.47;80.30;100461.53;2280161;67;66676;-69
2021/01/16 09:50:48;;;;;;;22.79;11.84;;;;;;;-4.36;80.44;100463.16;2282693;70;20202;-69
2021/01/16 09:53:50;;;;;;;19.46;10.58;;;;;;;-4.28;79.74;100467.16;2281764;70;20246;-69
2021/01/16 09:56:52;;;;;;;17.02;8.87;;;;;;;-4.21;79.42;100468.47;2282768;70;20250;-71
2021/01/16 10:00:22;;;;;;;20.62;10.51;;;;;;;-4.21;78.45;100458.31;2283156;70;20186;-69
2021/01/16 10:03:34;;;;;;;16.42;10.18;;;;;;;-4.17;77.77;100454.34;2284911;70;20174;-76
2021/01/16 10:06:36;;;;;;;16.62;9.34;;;;;;;-4.12;77.76;100456.44;2283158;69;20151;-75
2021/01/16 10:09:56;;;;;;;18.93;10.37;;;;;;;-4.12;77.08;100465.72;2283506;70;20573;-79
2021/01/16 10:13:01;;;;;;;17.34;9.78;;;;;;;-4.16;76.54;100459.50;2281992;69;20826;-77
2021/01/16 10:16:05;;;;;;;15.61;8.81;;;;;;;-4.28;75.62;100456.13;2284166;67;29764;-79
2021/01/16 10:19:11;;;;;;;16.29;9.64;;;;;;;-4.24;75.85;100449.63;2291017;69;20203;-79
2021/01/16 10:22:15;;;;;;;15.18;9.74;;;;;;;-4.14;75.23;100452.00;2290662;69;20162;-79
2021/01/16 10:25:17;;;;;;;16.64;9.80;;;;;;;-4.15;74.81;100443.53;2294096;69;20139;-82
2021/01/16 10:28:26;;;;;;;15.02;9.08;;;;;;;-4.15;74.58;100433.38;2296516;69;20778;-79
2021/01/16 10:31:29;;;;;;;11.98;7.96;;;;;;;-4.06;75.10;100431.50;2295768;67;23009;-81
2021/01/16 10:34:33;;;;;;;14.08;9.22;;;;;;;-4.04;75.08;100431.59;2291703;70;20638;-80
2021/01/16 10:37:41;;;;;;;12.03;7.96;;;;;;;-4.07;75.57;100418.72;2287814;70;20756;-79
2021/01/16 10:40:50;;;;;;;12.11;8.19;;;;;;;-4.03;75.17;100429.19;2282289;69;20163;-78
2021/01/16 10:43:59;;;;;;;14.98;8.57;;;;;;;-4.01;75.31;100426.75;2282364;70;20904;-79
2021/01/16 10:47:02;;;;;;;13.98;8.52;;;;;;;-4.02;75.55;100422.44;2281956;67;20311;-79
2021/01/16 10:50:08;;;;;;;14.16;7.92;;;;;;;-4.04;75.60;100414.75;2284136;70;20159;-79
2021/01/16 10:53:10;;;;;;;12.58;8.17;;;;;;;-3.97;75.75;100410.97;2284826;70;20209;-79
2021/01/16 10:56:23;;;;;;;13.07;7.53;;;;;;;-3.82;76.21;100413.69;2286139;70;20174;-77
2021/01/16 10:59:26;;;;;;;10.64;7.61;;;;;;;-3.72;75.49;100411.00;2293739;70;20209;-81
2021/01/16 11:02:36;;;;;;;11.18;7.70;;;;;;;-3.80;75.25;100410.47;2292712;67;21660;-83
2021/01/16 11:05:38;;;;;;;14.78;8.34;;;;;;;-3.73;75.16;100404.16;2294183;70;20219;-82
2021/01/16 11:08:40;;;;;;;12.49;7.84;;;;;;;-3.57;75.76;100401.03;2292232;70;20558;-82
2021/01/16 11:11:47;;;;;;;11.80;7.77;;;;;;;-3.51;75.49;100391.28;2293767;70;20200;-82
2021/01/16 11:14:49;;;;;;;12.21;7.89;;;;;;;-3.47;75.35;100388.16;2296301;70;20191;-83
2021/01/16 11:17:53;;;;;;;10.71;7.23;;;;;;;-3.48;74.66;100378.78;2294835;67;28844;-81
2021/01/16 11:21:01;;;;;;;13.13;7.70;;;;;;;-3.61;74.31;100377.06;2294952;70;20514;-81
2021/01/16 11:24:35;;;;;;;13.81;7.31;;;;;;;-3.61;74.79;100373.66;2294748;70;20202;-82
2021/01/16 11:27:49;;;;;;;14.59;7.44;;;;;;;-3.55;74.78;100376.63;2296002;70;20150;-81
2021/01/16 11:31:05;;;;;;;10.26;7.14;;;;;;;-3.49;74.67;100369.41;2293687;67;23500;-83
2021/01/16 11:34:07;;;;;;;10.93;7.02;;;;;;;-3.48;74.84;100369.50;2298522;70;20158;-81
2021/01/16 11:37:09;;;;;;;9.50;6.56;;;;;;;-3.32;74.98;100366.31;2294995;70;20674;-81
2021/01/16 11:40:31;;;;;;;12.37;7.62;;;;;;;-3.27;74.57;100364.09;2294802;70;20180;-83
2021/01/16 11:43:36;;;;;;;9.74;6.92;;;;;;;-3.42;73.95;100353.78;2297390;70;20147;-83
2021/01/16 11:46:38;;;;;;;9.19;5.97;;;;;;;-3.43;74.06;100352.03;2293288;66;20603;-83
2021/01/16 11:49:40;;;;;;;8.48;5.98;;;;;;;-3.42;74.39;100352.13;2291958;70;20180;-86
2021/01/16 11:52:41;;;;;;;8.57;5.81;;;;;;;-3.31;73.96;100349.44;2296478;70;20167;-85
2021/01/16 11:55:43;;;;;;;8.83;5.93;;;;;;;-3.35;73.61;100344.16;2291317;70;20179;-82
2021/01/16 11:58:46;;;;;;;9.32;6.06;;;;;;;-3.33;74.20;100338.28;2294044;70;20167;-82
2021/01/16 12:01:47;;;;;;;8.12;5.90;;;;;;;-3.24;74.37;100329.59;2295084;67;20643;-84
2021/01/16 12:04:50;;;;;;;6.93;5.63;;;;;;;-3.22;74.15;100327.19;2291804;70;21346;31
2021/01/16 12:07:57;;;;;;;8.04;5.28;;;;;;;-3.13;74.63;100315.06;2265900;70;20680;-82
2021/01/16 12:10:59;;;;;;;7.90;6.16;;;;;;;-3.10;74.38;100315.25;2282628;70;20172;-84
2021/01/16 12:14:02;;;;;;;7.04;5.44;;;;;;;-3.08;74.42;100304.41;2281517;70;20255;-84
2021/01/16 12:17:11;;;;;;;8.89;5.87;;;;;;;-3.11;74.08;100294.06;2299276;67;172685;-81
2021/01/16 12:20:15;;;;;;;8.46;6.26;;;;;;;-3.01;74.61;100287.06;2298867;70;20266;-78
2021/01/16 12:30:51;;;;;;;7.67;5.67;;;;;;;-2.72;74.09;100266.88;2289420;69;20211;31
2021/01/16 12:37:36;;;;;;;9.61;5.69;;;;;;;-2.69;73.92;100258.53;2278378;70;20256;-83
2021/01/16 12:40:38;;;;;;;9.32;6.30;;;;;;;-2.77;73.50;100245.38;2303930;70;20180;-80
2021/01/16 12:52:02;;;;;;;10.67;6.51;;;;;;;-2.67;73.59;100241.75;2262047;70;20207;31
2021/01/16 12:58:50;;;;;;;10.12;6.27;;;;;;;-2.81;73.18;100233.28;2284966;70;20129;31
2021/01/16 13:02:13;;;;;;;11.79;7.10;;;;;;;-2.78;73.74;100221.63;2296683;70;20222;31
2021/01/16 13:08:56;;;;;;;10.53;6.61;;;;;;;-2.71;73.69;100215.25;2265063;71;20260;31
2021/01/16 13:15:42;;;;;;;9.49;6.41;;;;;;;-2.77;73.68;100205.59;2263577;70;21279;31
2021/01/16 13:19:01;;;;;;;13.08;7.99;;;;;;;-2.82;73.76;100201.91;2273516;71;20211;31
2021/01/16 13:22:06;;;;;;;10.51;6.63;;;;;;;-2.77;74.06;100197.09;2287213;69;20321;31
2021/01/16 13:25:16;;;;;;;12.60;7.78;;;;;;;-2.75;74.07;100195.53;2277990;69;20223;31
2021/01/16 13:31:33;;;;;;;12.48;7.42;;;;;;;-2.70;73.85;100194.13;2284615;70;20135;31
2021/01/16 13:34:44;;;;;;;13.36;7.82;;;;;;;-2.76;74.07;100191.22;2274745;70;21058;31
2021/01/16 13:37:50;;;;;;;15.14;8.51;;;;;;;-2.78;74.50;100191.13;2300366;70;20219;-86
2021/01/16 13:47:27;;;;;;;16.27;8.29;;;;;;;-2.90;74.96;100162.44;2287505;67;201939;31
2021/01/16 13:50:34;;;;;;;15.60;8.94;;;;;;;-2.95;74.90;100155.31;2280532;70;20251;-83
2021/01/16 13:57:02;;;;;;;15.96;9.43;;;;;;;-2.85;75.46;100160.19;2282094;70;20359;-84
2021/01/16 14:00:05;;;;;;;14.23;8.70;;;;;;;-2.87;75.09;100149.94;2292026;70;20375;-84
2021/01/16 14:03:12;;;;;;;16.02;9.21;;;;;;;-2.91;74.70;100145.44;2310529;67;173218;-84
2021/01/16 14:06:17;;;;;;;18.80;9.37;;;;;;;-3.01;74.64;100150.75;2302385;69;20150;-83
2021/01/16 14:09:29;;;;;;;19.67;9.66;;;;;;;-3.13;74.77;100152.53;2308424;69;20175;-85
2021/01/16 14:12:31;;;;;;;18.00;9.71;;;;;;;-3.20;75.00;100148.75;2303188;69;20182;-83
2021/01/16 14:15:40;;;;;;;18.40;9.92;;;;;;;-3.21;75.45;100147.00;2313045;67;138959;31
2021/01/16 14:18:44;;;;;;;15.68;9.49;;;;;;;-3.24;75.72;100145.91;2281054;70;20173;-83
2021/01/16 14:21:52;;;;;;;15.99;9.74;;;;;;;-3.26;75.74;100148.34;2284233;70;20204;-84
2021/01/16 14:28:03;;;;;;;18.57;10.00;;;;;;;-3.52;75.63;100134.03;2292926;69;20301;31
2021/01/16 14:31:16;;;;;;;20.49;11.12;;;;;;;-3.56;75.92;100142.25;2285772;70;20145;-84
2021/01/16 14:34:18;;;;;;;20.79;10.28;;;;;;;-3.68;76.12;100137.25;2291174;70;20268;-84
2021/01/16 14:37:25;;;;;;;22.68;11.03;;;;;;;-3.77;76.31;100135.78;2303590;69;20155;-84
2021/01/16 14:40:32;;;;;;;21.06;11.48;;;;;;;-3.80;76.82;100130.50;2286817;70;20177;-70
2021/01/16 14:43:34;;;;;;;17.76;10.12;;;;;;;-3.84;77.03;100120.97;2283766;70;20175;-71
2021/01/16 14:46:40;;;;;;;19.09;9.89;;;;;;;-3.85;77.12;100124.28;2281358;67;21680;-70
2021/01/16 14:49:42;;;;;;;20.73;10.80;;;;;;;-3.94;77.15;100122.06;2283098;70;20151;-71
2021/01/16 14:52:44;;;;;;;20.43;10.38;;;;;;;-3.99;77.38;100129.34;2283837;70;20150;-70
2021/01/16 14:56:02;;;;;;;20.33;10.61;;;;;;;-4.00;77.42;100126.69;2282315;70;20151;-70
2021/01/16 14:59:08;;;;;;;19.22;9.02;;;;;;;-4.08;77.44;100125.34;2283986;70;20260;-70
2021/01/16 15:02:19;;;;;;;22.61;10.63;;;;;;;-4.18;77.52;100116.25;2285929;69;29397;-70
2021/01/16 15:05:23;;;;;;;21.08;10.44;;;;;;;-4.29;77.70;100114.69;2289162;69;20176;-70
2021/01/16 15:08:24;;;;;;;19.20;9.73;;;;;;;-4.41;77.91;100107.16;2289861;69;20739;-70
2021/01/16 15:11:26;;;;;;;21.96;11.10;;;;;;;-4.42;78.12;100109.59;2290315;69;20514;-70